sensor_id;sensor_type;location;lat;lon;timestamp;temperature;humidity
5556;DHT22;2801;50.972;7.856;2022-09-09T00:01:59;12.10;99.90
5556;DHT22;2801;50.972;7.856;2022-09-09T00:05:48;12.20;99.90
5556;DHT22;2801;50.972;7.856;2022-09-09T00:08:22;12.20;99.90
5556;DHT22;2801;50.972;7.856;2022-09-09T00:10:58;12.20;99.90
5556;DHT22;2801;50.972;7.856;2022-09-09T00:13:33;12.10;99.90
5556;DHT22;2801;50.972;7.856;2022-09-09T00:21:42;12.20;99.90
5556;DHT22;2801;50.972;7.856;2022-09-09T00:24:26;12.20;99.90
5556;DHT22;2801;50.972;7.856;2022-09-09T00:27:46;12.20;99.90
5556;DHT22;2801;50.972;7.856;2022-09-09T00:32:46;12.20;99.90
5556;DHT22;2801;50.972;7.856;2022-09-09T00:35:24;12.30;99.90
5556;DHT22;2801;50.972;7.856;2022-09-09T00:38:00;12.30;99.90
5556;DHT22;2801;50.972;7.856;2022-09-09T00:40:32;12.40;99.90
5556;DHT22;2801;50.972;7.856;2022-09-09T00:43:09;12.40;99.90
5556;DHT22;2801;50.972;7.856;2022-09-09T00:45:51;12.40;99.90
5556;DHT22;2801;50.972;7.856;2022-09-09T00:48:22;12.40;99.90
5556;DHT22;2801;50.972;7.856;2022-09-09T00:51:29;12.40;99.90
5556;DHT22;2801;50.972;7.856;2022-09-09T00:57:18;12.30;99.90
5556;DHT22;2801;50.972;7.856;2022-09-09T01:03:14;12.40;99.90
5556;DHT22;2801;50.972;7.856;2022-09-09T01:09:05;12.40;99.90
5556;DHT22;2801;50.972;7.856;2022-09-09T01:12:16;12.40;99.90
5556;DHT22;2801;50.972;7.856;2022-09-09T01:14:56;12.30;99.90
5556;DHT22;2801;50.972;7.856;2022-09-09T01:20:36;12.40;99.90
5556;DHT22;2801;50.972;7.856;2022-09-09T01:29:14;12.40;99.90
5556;DHT22;2801;50.972;7.856;2022-09-09T01:31:54;12.40;99.90
5556;DHT22;2801;50.972;7.856;2022-09-09T01:34:23;12.40;99.90
5556;DHT22;2801;50.972;7.856;2022-09-09T01:37:07;12.40;99.90
5556;DHT22;2801;50.972;7.856;2022-09-09T01:39:38;12.40;99.90
5556;DHT22;2801;50.972;7.856;2022-09-09T01:42:10;12.50;99.90
5556;DHT22;2801;50.972;7.856;2022-09-09T01:44:40;12.40;99.90
5556;DHT22;2801;50.972;7.856;2022-09-09T01:47:07;12.40;99.90
5556;DHT22;2801;50.972;7.856;2022-09-09T01:49:34;12.40;99.90
5556;DHT22;2801;50.972;7.856;2022-09-09T01:52:01;12.50;99.90
5556;DHT22;2801;50.972;7.856;2022-09-09T01:54:31;12.40;99.90
5556;DHT22;2801;50.972;7.856;2022-09-09T01:57:05;12.50;99.90
5556;DHT22;2801;50.972;7.856;2022-09-09T02:02:23;12.40;99.90
5556;DHT22;2801;50.972;7.856;2022-09-09T02:08:11;12.30;99.90
5556;DHT22;2801;50.972;7.856;2022-09-09T02:10:58;12.30;99.90
5556;DHT22;2801;50.972;7.856;2022-09-09T02:13:34;12.30;99.90
5556;DHT22;2801;50.972;7.856;2022-09-09T02:16:42;12.40;99.90
5556;DHT22;2801;50.972;7.856;2022-09-09T02:19:18;12.40;99.90
5556;DHT22;2801;50.972;7.856;2022-09-09T02:21:55;12.40;99.90
5556;DHT22;2801;50.972;7.856;2022-09-09T02:24:25;12.30;99.90
5556;DHT22;2801;50.972;7.856;2022-09-09T02:26:55;12.30;99.90
5556;DHT22;2801;50.972;7.856;2022-09-09T02:29:35;12.30;99.90
5556;DHT22;2801;50.972;7.856;2022-09-09T02:32:08;12.30;99.90
5556;DHT22;2801;50.972;7.856;2022-09-09T02:34:44;12.30;99.90
5556;DHT22;2801;50.972;7.856;2022-09-09T02:37:18;12.20;99.90
5556;DHT22;2801;50.972;7.856;2022-09-09T02:39:49;12.30;99.90
5556;DHT22;2801;50.972;7.856;2022-09-09T02:42:16;12.30;99.90
5556;DHT22;2801;50.972;7.856;2022-09-09T02:44:44;12.30;99.90
5556;DHT22;2801;50.972;7.856;2022-09-09T02:47:30;12.30;99.90
5556;DHT22;2801;50.972;7.856;2022-09-09T02:50:17;12.40;99.90
5556;DHT22;2801;50.972;7.856;2022-09-09T02:53:16;12.40;99.90
5556;DHT22;2801;50.972;7.856;2022-09-09T02:56:04;12.30;99.90
5556;DHT22;2801;50.972;7.856;2022-09-09T02:58:36;12.30;99.90
5556;DHT22;2801;50.972;7.856;2022-09-09T03:01:03;12.30;99.90
5556;DHT22;2801;50.972;7.856;2022-09-09T03:03:31;12.30;99.90
5556;DHT22;2801;50.972;7.856;2022-09-09T03:05:58;12.30;99.90
5556;DHT22;2801;50.972;7.856;2022-09-09T03:08:25;12.20;99.90
5556;DHT22;2801;50.972;7.856;2022-09-09T03:10:54;12.20;99.90
5556;DHT22;2801;50.972;7.856;2022-09-09T03:13:21;12.20;99.90
5556;DHT22;2801;50.972;7.856;2022-09-09T03:15:48;12.20;99.90
5556;DHT22;2801;50.972;7.856;2022-09-09T03:18:15;12.40;99.90
5556;DHT22;2801;50.972;7.856;2022-09-09T03:20:42;12.20;99.90
5556;DHT22;2801;50.972;7.856;2022-09-09T03:23:09;12.20;99.90
5556;DHT22;2801;50.972;7.856;2022-09-09T03:25:47;12.10;99.90
5556;DHT22;2801;50.972;7.856;2022-09-09T03:28:15;12.00;99.90
5556;DHT22;2801;50.972;7.856;2022-09-09T03:30:42;12.10;99.90
5556;DHT22;2801;50.972;7.856;2022-09-09T03:33:09;12.10;99.90
5556;DHT22;2801;50.972;7.856;2022-09-09T03:35:36;12.10;99.90
5556;DHT22;2801;50.972;7.856;2022-09-09T03:38:02;12.10;99.90
5556;DHT22;2801;50.972;7.856;2022-09-09T03:40:29;12.10;99.90
5556;DHT22;2801;50.972;7.856;2022-09-09T03:42:57;12.10;99.90
5556;DHT22;2801;50.972;7.856;2022-09-09T03:45:24;12.10;99.90
5556;DHT22;2801;50.972;7.856;2022-09-09T03:47:51;12.10;99.90
5556;DHT22;2801;50.972;7.856;2022-09-09T03:50:17;12.00;99.90
5556;DHT22;2801;50.972;7.856;2022-09-09T03:52:44;12.00;99.90
5556;DHT22;2801;50.972;7.856;2022-09-09T03:55:13;11.90;99.90
5556;DHT22;2801;50.972;7.856;2022-09-09T03:57:40;11.90;99.90
5556;DHT22;2801;50.972;7.856;2022-09-09T04:00:08;12.00;99.90
5556;DHT22;2801;50.972;7.856;2022-09-09T04:02:35;12.00;99.90
5556;DHT22;2801;50.972;7.856;2022-09-09T04:05:02;12.00;99.90
5556;DHT22;2801;50.972;7.856;2022-09-09T04:07:29;12.10;99.90
5556;DHT22;2801;50.972;7.856;2022-09-09T04:09:55;12.20;99.90
5556;DHT22;2801;50.972;7.856;2022-09-09T04:12:23;12.20;99.90
5556;DHT22;2801;50.972;7.856;2022-09-09T04:14:50;12.30;99.90
5556;DHT22;2801;50.972;7.856;2022-09-09T04:17:16;12.30;99.90
5556;DHT22;2801;50.972;7.856;2022-09-09T04:19:43;12.30;99.90
5556;DHT22;2801;50.972;7.856;2022-09-09T04:22:10;12.30;99.90
5556;DHT22;2801;50.972;7.856;2022-09-09T04:24:37;12.30;99.90
5556;DHT22;2801;50.972;7.856;2022-09-09T04:27:04;12.40;99.90
5556;DHT22;2801;50.972;7.856;2022-09-09T04:29:31;12.50;99.90
5556;DHT22;2801;50.972;7.856;2022-09-09T04:31:58;12.40;99.90
5556;DHT22;2801;50.972;7.856;2022-09-09T04:34:25;12.40;99.90
5556;DHT22;2801;50.972;7.856;2022-09-09T04:36:52;12.40;99.90
5556;DHT22;2801;50.972;7.856;2022-09-09T04:39:18;12.50;99.90
5556;DHT22;2801;50.972;7.856;2022-09-09T04:41:46;12.50;99.90
5556;DHT22;2801;50.972;7.856;2022-09-09T04:44:13;12.60;99.90
5556;DHT22;2801;50.972;7.856;2022-09-09T04:46:40;12.60;99.90
5556;DHT22;2801;50.972;7.856;2022-09-09T04:49:07;12.70;99.90
5556;DHT22;2801;50.972;7.856;2022-09-09T04:51:40;12.70;99.90
5556;DHT22;2801;50.972;7.856;2022-09-09T04:54:07;12.70;99.90
5556;DHT22;2801;50.972;7.856;2022-09-09T04:56:34;12.70;99.90
5556;DHT22;2801;50.972;7.856;2022-09-09T04:59:00;12.80;99.90
5556;DHT22;2801;50.972;7.856;2022-09-09T05:01:29;12.80;99.90
5556;DHT22;2801;50.972;7.856;2022-09-09T05:03:56;12.90;99.90
5556;DHT22;2801;50.972;7.856;2022-09-09T05:06:23;12.90;99.90
5556;DHT22;2801;50.972;7.856;2022-09-09T05:08:50;13.00;99.90
5556;DHT22;2801;50.972;7.856;2022-09-09T05:11:22;13.00;99.90
5556;DHT22;2801;50.972;7.856;2022-09-09T05:13:51;13.10;99.90
5556;DHT22;2801;50.972;7.856;2022-09-09T05:16:19;13.20;99.90
5556;DHT22;2801;50.972;7.856;2022-09-09T05:18:47;13.30;99.90
5556;DHT22;2801;50.972;7.856;2022-09-09T05:21:18;13.30;99.90
5556;DHT22;2801;50.972;7.856;2022-09-09T05:23:46;13.40;99.90
5556;DHT22;2801;50.972;7.856;2022-09-09T05:26:15;13.40;99.90
5556;DHT22;2801;50.972;7.856;2022-09-09T05:28:44;13.50;99.90
5556;DHT22;2801;50.972;7.856;2022-09-09T05:31:13;13.50;99.90
5556;DHT22;2801;50.972;7.856;2022-09-09T05:33:44;13.60;99.90
5556;DHT22;2801;50.972;7.856;2022-09-09T05:36:14;13.60;99.90
5556;DHT22;2801;50.972;7.856;2022-09-09T05:38:44;13.60;99.90
5556;DHT22;2801;50.972;7.856;2022-09-09T05:41:12;13.70;99.90
5556;DHT22;2801;50.972;7.856;2022-09-09T05:43:42;13.70;99.90
5556;DHT22;2801;50.972;7.856;2022-09-09T05:46:15;13.70;99.90
5556;DHT22;2801;50.972;7.856;2022-09-09T05:48:47;13.70;99.90
5556;DHT22;2801;50.972;7.856;2022-09-09T05:51:25;13.80;99.90
5556;DHT22;2801;50.972;7.856;2022-09-09T05:53:54;13.90;99.90
5556;DHT22;2801;50.972;7.856;2022-09-09T05:56:27;13.90;99.90
5556;DHT22;2801;50.972;7.856;2022-09-09T05:58:55;14.00;99.90
5556;DHT22;2801;50.972;7.856;2022-09-09T06:01:25;14.20;99.90
5556;DHT22;2801;50.972;7.856;2022-09-09T06:03:53;14.30;99.90
5556;DHT22;2801;50.972;7.856;2022-09-09T06:06:23;14.40;99.90
5556;DHT22;2801;50.972;7.856;2022-09-09T06:08:56;14.50;99.90
5556;DHT22;2801;50.972;7.856;2022-09-09T06:11:29;14.50;99.90
5556;DHT22;2801;50.972;7.856;2022-09-09T06:14:02;14.60;99.90
5556;DHT22;2801;50.972;7.856;2022-09-09T06:16:30;14.60;99.90
5556;DHT22;2801;50.972;7.856;2022-09-09T06:18:59;14.60;99.90
5556;DHT22;2801;50.972;7.856;2022-09-09T06:21:29;14.60;99.90
5556;DHT22;2801;50.972;7.856;2022-09-09T06:23:57;14.60;99.90
5556;DHT22;2801;50.972;7.856;2022-09-09T06:26:31;14.60;99.90
5556;DHT22;2801;50.972;7.856;2022-09-09T06:29:00;14.70;99.90
5556;DHT22;2801;50.972;7.856;2022-09-09T06:31:31;14.90;99.90
5556;DHT22;2801;50.972;7.856;2022-09-09T06:34:01;15.90;99.90
5556;DHT22;2801;50.972;7.856;2022-09-09T06:36:30;16.70;99.90
5556;DHT22;2801;50.972;7.856;2022-09-09T06:38:59;17.30;99.90
5556;DHT22;2801;50.972;7.856;2022-09-09T06:41:28;17.30;99.90
5556;DHT22;2801;50.972;7.856;2022-09-09T06:43:57;17.10;99.90
5556;DHT22;2801;50.972;7.856;2022-09-09T06:46:26;16.90;99.90
5556;DHT22;2801;50.972;7.856;2022-09-09T06:48:55;16.60;99.90
5556;DHT22;2801;50.972;7.856;2022-09-09T06:51:25;16.20;99.90
5556;DHT22;2801;50.972;7.856;2022-09-09T06:53:55;15.90;99.90
5556;DHT22;2801;50.972;7.856;2022-09-09T06:58:59;15.60;99.90
5556;DHT22;2801;50.972;7.856;2022-09-09T07:01:32;15.70;99.90
5556;DHT22;2801;50.972;7.856;2022-09-09T07:04:01;15.80;99.90
5556;DHT22;2801;50.972;7.856;2022-09-09T07:06:32;16.40;99.90
5556;DHT22;2801;50.972;7.856;2022-09-09T07:09:06;17.00;99.90
5556;DHT22;2801;50.972;7.856;2022-09-09T07:11:38;17.30;99.90
5556;DHT22;2801;50.972;7.856;2022-09-09T07:14:11;17.40;99.90
5556;DHT22;2801;50.972;7.856;2022-09-09T07:16:41;17.10;99.90
5556;DHT22;2801;50.972;7.856;2022-09-09T07:19:09;16.90;99.90
5556;DHT22;2801;50.972;7.856;2022-09-09T07:21:37;16.80;99.90
5556;DHT22;2801;50.972;7.856;2022-09-09T07:24:04;16.70;99.90
5556;DHT22;2801;50.972;7.856;2022-09-09T07:26:34;16.60;99.90
5556;DHT22;2801;50.972;7.856;2022-09-09T07:29:01;16.40;99.90
5556;DHT22;2801;50.972;7.856;2022-09-09T07:31:30;16.70;99.90
5556;DHT22;2801;50.972;7.856;2022-09-09T07:34:04;16.90;99.90
5556;DHT22;2801;50.972;7.856;2022-09-09T07:36:33;16.80;99.90
5556;DHT22;2801;50.972;7.856;2022-09-09T07:39:10;17.10;99.90
5556;DHT22;2801;50.972;7.856;2022-09-09T07:41:46;17.70;99.90
5556;DHT22;2801;50.972;7.856;2022-09-09T07:44:17;17.70;99.90
5556;DHT22;2801;50.972;7.856;2022-09-09T07:46:48;17.80;99.90
5556;DHT22;2801;50.972;7.856;2022-09-09T07:49:15;17.60;99.90
5556;DHT22;2801;50.972;7.856;2022-09-09T07:51:44;17.50;99.90
5556;DHT22;2801;50.972;7.856;2022-09-09T07:54:14;18.10;99.90
5556;DHT22;2801;50.972;7.856;2022-09-09T07:56:42;19.20;99.90
5556;DHT22;2801;50.972;7.856;2022-09-09T07:59:10;20.00;99.90
5556;DHT22;2801;50.972;7.856;2022-09-09T08:01:39;20.20;99.90
5556;DHT22;2801;50.972;7.856;2022-09-09T08:04:15;20.30;99.90
5556;DHT22;2801;50.972;7.856;2022-09-09T08:06:46;20.40;99.90
5556;DHT22;2801;50.972;7.856;2022-09-09T08:09:22;20.70;99.90
5556;DHT22;2801;50.972;7.856;2022-09-09T08:11:56;21.40;99.90
5556;DHT22;2801;50.972;7.856;2022-09-09T08:14:23;22.20;99.90
5556;DHT22;2801;50.972;7.856;2022-09-09T08:16:50;22.40;99.90
5556;DHT22;2801;50.972;7.856;2022-09-09T08:19:20;22.30;99.90
5556;DHT22;2801;50.972;7.856;2022-09-09T08:21:47;22.30;99.90
5556;DHT22;2801;50.972;7.856;2022-09-09T08:24:15;22.50;99.90
5556;DHT22;2801;50.972;7.856;2022-09-09T08:26:44;22.90;99.90
5556;DHT22;2801;50.972;7.856;2022-09-09T08:29:13;23.10;99.90
5556;DHT22;2801;50.972;7.856;2022-09-09T08:31:46;22.70;99.90
5556;DHT22;2801;50.972;7.856;2022-09-09T08:34:17;22.20;99.90
5556;DHT22;2801;50.972;7.856;2022-09-09T08:36:49;22.00;99.90
5556;DHT22;2801;50.972;7.856;2022-09-09T08:39:18;21.50;99.90
5556;DHT22;2801;50.972;7.856;2022-09-09T08:50:30;19.80;99.90
5556;DHT22;2801;50.972;7.856;2022-09-09T08:53:05;19.60;99.90
5556;DHT22;2801;50.972;7.856;2022-09-09T08:55:49;19.30;99.90
5556;DHT22;2801;50.972;7.856;2022-09-09T08:58:22;18.90;99.90
5556;DHT22;2801;50.972;7.856;2022-09-09T09:01:05;18.50;99.90
5556;DHT22;2801;50.972;7.856;2022-09-09T09:12:19;17.80;99.90
5556;DHT22;2801;50.972;7.856;2022-09-09T09:14:49;17.70;99.90
5556;DHT22;2801;50.972;7.856;2022-09-09T09:17:17;18.80;99.90
5556;DHT22;2801;50.972;7.856;2022-09-09T09:19:47;20.20;99.90
5556;DHT22;2801;50.972;7.856;2022-09-09T09:25:31;20.30;99.90
5556;DHT22;2801;50.972;7.856;2022-09-09T09:28:24;20.00;99.90
5556;DHT22;2801;50.972;7.856;2022-09-09T09:31:04;19.80;99.90
5556;DHT22;2801;50.972;7.856;2022-09-09T09:33:49;20.50;99.90
5556;DHT22;2801;50.972;7.856;2022-09-09T09:36:17;20.70;99.90
5556;DHT22;2801;50.972;7.856;2022-09-09T09:38:58;20.40;99.90
5556;DHT22;2801;50.972;7.856;2022-09-09T09:41:46;20.00;99.90
5556;DHT22;2801;50.972;7.856;2022-09-09T09:47:08;19.20;99.90
5556;DHT22;2801;50.972;7.856;2022-09-09T09:49:38;19.50;99.90
5556;DHT22;2801;50.972;7.856;2022-09-09T09:52:21;20.10;99.90
5556;DHT22;2801;50.972;7.856;2022-09-09T09:54:50;20.70;99.90
5556;DHT22;2801;50.972;7.856;2022-09-09T09:57:27;21.20;99.90
5556;DHT22;2801;50.972;7.856;2022-09-09T10:00:19;21.40;99.90
5556;DHT22;2801;50.972;7.856;2022-09-09T10:02:49;21.30;99.90
5556;DHT22;2801;50.972;7.856;2022-09-09T10:05:23;21.00;99.90
5556;DHT22;2801;50.972;7.856;2022-09-09T10:08:10;20.60;99.90
5556;DHT22;2801;50.972;7.856;2022-09-09T10:11:02;20.30;99.90
5556;DHT22;2801;50.972;7.856;2022-09-09T10:17:09;19.40;99.90
5556;DHT22;2801;50.972;7.856;2022-09-09T10:22:45;18.40;99.90
5556;DHT22;2801;50.972;7.856;2022-09-09T10:34:51;18.70;99.90
5556;DHT22;2801;50.972;7.856;2022-09-09T10:37:59;19.10;99.90
5556;DHT22;2801;50.972;7.856;2022-09-09T10:41:06;20.00;99.90
5556;DHT22;2801;50.972;7.856;2022-09-09T10:44:14;20.90;99.90
5556;DHT22;2801;50.972;7.856;2022-09-09T10:53:22;19.90;99.90
5556;DHT22;2801;50.972;7.856;2022-09-09T10:56:16;19.70;99.90
5556;DHT22;2801;50.972;7.856;2022-09-09T10:58:58;20.10;99.90
5556;DHT22;2801;50.972;7.856;2022-09-09T11:01:37;20.10;99.90
5556;DHT22;2801;50.972;7.856;2022-09-09T11:04:25;19.90;99.90
5556;DHT22;2801;50.972;7.856;2022-09-09T11:07:04;19.70;99.90
5556;DHT22;2801;50.972;7.856;2022-09-09T11:09:45;19.80;99.90
5556;DHT22;2801;50.972;7.856;2022-09-09T11:12:19;20.30;99.90
5556;DHT22;2801;50.972;7.856;2022-09-09T11:14:52;21.10;99.90
5556;DHT22;2801;50.972;7.856;2022-09-09T11:17:33;21.70;99.90
5556;DHT22;2801;50.972;7.856;2022-09-09T11:20:11;22.20;99.90
5556;DHT22;2801;50.972;7.856;2022-09-09T11:22:50;22.10;99.90
5556;DHT22;2801;50.972;7.856;2022-09-09T11:25:40;21.70;99.90
5556;DHT22;2801;50.972;7.856;2022-09-09T11:28:40;21.10;99.90
5556;DHT22;2801;50.972;7.856;2022-09-09T11:31:40;20.90;99.90
5556;DHT22;2801;50.972;7.856;2022-09-09T11:40:37;20.80;99.90
5556;DHT22;2801;50.972;7.856;2022-09-09T11:43:13;21.00;99.90
5556;DHT22;2801;50.972;7.856;2022-09-09T11:45:55;21.00;99.90
5556;DHT22;2801;50.972;7.856;2022-09-09T11:48:37;21.00;99.90
5556;DHT22;2801;50.972;7.856;2022-09-09T11:53:59;20.70;99.90
5556;DHT22;2801;50.972;7.856;2022-09-09T11:56:49;20.70;99.90
5556;DHT22;2801;50.972;7.856;2022-09-09T11:59:28;20.80;99.90
5556;DHT22;2801;50.972;7.856;2022-09-09T12:02:17;21.00;99.90
5556;DHT22;2801;50.972;7.856;2022-09-09T12:05:00;21.00;99.90
5556;DHT22;2801;50.972;7.856;2022-09-09T12:07:49;20.80;99.90
5556;DHT22;2801;50.972;7.856;2022-09-09T12:10:30;20.70;99.90
5556;DHT22;2801;50.972;7.856;2022-09-09T12:13:20;20.60;99.90
5556;DHT22;2801;50.972;7.856;2022-09-09T12:15:54;20.80;99.90
5556;DHT22;2801;50.972;7.856;2022-09-09T12:24:03;21.20;99.90
5556;DHT22;2801;50.972;7.856;2022-09-09T12:26:45;21.00;99.90
5556;DHT22;2801;50.972;7.856;2022-09-09T12:32:29;20.60;99.90
5556;DHT22;2801;50.972;7.856;2022-09-09T12:35:03;20.50;99.90
5556;DHT22;2801;50.972;7.856;2022-09-09T12:37:38;20.40;99.90
5556;DHT22;2801;50.972;7.856;2022-09-09T12:40:30;20.90;99.90
5556;DHT22;2801;50.972;7.856;2022-09-09T12:42:59;21.40;99.90
5556;DHT22;2801;50.972;7.856;2022-09-09T12:45:32;21.50;99.90
5556;DHT22;2801;50.972;7.856;2022-09-09T12:48:06;21.30;99.90
5556;DHT22;2801;50.972;7.856;2022-09-09T12:50:38;21.20;99.90
5556;DHT22;2801;50.972;7.856;2022-09-09T12:53:28;21.00;99.90
5556;DHT22;2801;50.972;7.856;2022-09-09T12:56:07;20.90;99.90
5556;DHT22;2801;50.972;7.856;2022-09-09T12:58:37;20.70;99.90
5556;DHT22;2801;50.972;7.856;2022-09-09T13:01:23;20.90;99.90
5556;DHT22;2801;50.972;7.856;2022-09-09T13:03:55;21.30;99.90
5556;DHT22;2801;50.972;7.856;2022-09-09T13:06:30;21.50;99.90
5556;DHT22;2801;50.972;7.856;2022-09-09T13:09:01;21.70;99.90
5556;DHT22;2801;50.972;7.856;2022-09-09T13:11:41;21.80;99.90
5556;DHT22;2801;50.972;7.856;2022-09-09T13:14:33;21.90;99.90
5556;DHT22;2801;50.972;7.856;2022-09-09T13:17:05;21.90;99.90
5556;DHT22;2801;50.972;7.856;2022-09-09T13:19:37;21.80;99.90
5556;DHT22;2801;50.972;7.856;2022-09-09T13:22:35;21.90;99.90
5556;DHT22;2801;50.972;7.856;2022-09-09T13:27:39;22.00;99.90
5556;DHT22;2801;50.972;7.856;2022-09-09T13:30:33;22.00;99.90
5556;DHT22;2801;50.972;7.856;2022-09-09T13:36:02;22.60;99.90
5556;DHT22;2801;50.972;7.856;2022-09-09T13:38:35;22.80;99.90
5556;DHT22;2801;50.972;7.856;2022-09-09T13:41:08;23.00;99.90
5556;DHT22;2801;50.972;7.856;2022-09-09T13:43:45;23.30;99.90
5556;DHT22;2801;50.972;7.856;2022-09-09T13:46:35;23.40;99.90
5556;DHT22;2801;50.972;7.856;2022-09-09T13:54:15;22.70;99.90
5556;DHT22;2801;50.972;7.856;2022-09-09T13:56:45;22.50;99.90
5556;DHT22;2801;50.972;7.856;2022-09-09T13:59:15;22.20;99.90
5556;DHT22;2801;50.972;7.856;2022-09-09T14:01:45;22.20;99.90
5556;DHT22;2801;50.972;7.856;2022-09-09T14:04:12;22.00;99.90
5556;DHT22;2801;50.972;7.856;2022-09-09T14:06:39;22.00;99.90
5556;DHT22;2801;50.972;7.856;2022-09-09T14:09:09;21.80;99.90
5556;DHT22;2801;50.972;7.856;2022-09-09T14:11:39;21.60;99.90
5556;DHT22;2801;50.972;7.856;2022-09-09T14:14:07;21.40;99.90
5556;DHT22;2801;50.972;7.856;2022-09-09T14:16:34;21.20;99.90
5556;DHT22;2801;50.972;7.856;2022-09-09T14:19:01;21.00;99.90
5556;DHT22;2801;50.972;7.856;2022-09-09T14:21:28;20.80;99.90
5556;DHT22;2801;50.972;7.856;2022-09-09T14:23:55;20.80;99.90
5556;DHT22;2801;50.972;7.856;2022-09-09T14:26:25;20.80;99.90
5556;DHT22;2801;50.972;7.856;2022-09-09T14:28:52;20.90;99.90
5556;DHT22;2801;50.972;7.856;2022-09-09T14:31:22;21.10;99.90
5556;DHT22;2801;50.972;7.856;2022-09-09T14:33:49;21.00;99.90
5556;DHT22;2801;50.972;7.856;2022-09-09T14:36:17;20.90;99.90
5556;DHT22;2801;50.972;7.856;2022-09-09T14:38:44;20.90;99.90
5556;DHT22;2801;50.972;7.856;2022-09-09T14:41:13;20.60;99.90
5556;DHT22;2801;50.972;7.856;2022-09-09T14:43:46;20.20;99.90
5556;DHT22;2801;50.972;7.856;2022-09-09T14:46:14;19.70;99.90
5556;DHT22;2801;50.972;7.856;2022-09-09T14:48:43;19.30;99.90
5556;DHT22;2801;50.972;7.856;2022-09-09T14:51:19;19.20;99.90
5556;DHT22;2801;50.972;7.856;2022-09-09T14:53:51;19.20;99.90
5556;DHT22;2801;50.972;7.856;2022-09-09T14:56:22;19.30;99.90
5556;DHT22;2801;50.972;7.856;2022-09-09T14:58:53;19.20;99.90
5556;DHT22;2801;50.972;7.856;2022-09-09T15:01:22;19.20;99.90
5556;DHT22;2801;50.972;7.856;2022-09-09T15:03:52;19.10;99.90
5556;DHT22;2801;50.972;7.856;2022-09-09T15:06:22;18.90;99.90
5556;DHT22;2801;50.972;7.856;2022-09-09T15:08:51;18.90;99.90
5556;DHT22;2801;50.972;7.856;2022-09-09T15:11:20;18.80;99.90
5556;DHT22;2801;50.972;7.856;2022-09-09T15:13:50;18.80;99.90
5556;DHT22;2801;50.972;7.856;2022-09-09T15:16:23;18.80;99.90
5556;DHT22;2801;50.972;7.856;2022-09-09T15:18:54;18.80;99.90
5556;DHT22;2801;50.972;7.856;2022-09-09T15:21:24;18.90;99.90
5556;DHT22;2801;50.972;7.856;2022-09-09T15:23:53;18.80;99.90
5556;DHT22;2801;50.972;7.856;2022-09-09T15:26:21;18.70;99.90
5556;DHT22;2801;50.972;7.856;2022-09-09T15:28:48;18.70;99.90
5556;DHT22;2801;50.972;7.856;2022-09-09T15:31:22;18.60;99.90
5556;DHT22;2801;50.972;7.856;2022-09-09T15:34:01;18.60;99.90
5556;DHT22;2801;50.972;7.856;2022-09-09T15:36:38;18.50;99.90
5556;DHT22;2801;50.972;7.856;2022-09-09T15:39:14;18.40;99.90
5556;DHT22;2801;50.972;7.856;2022-09-09T15:41:47;18.40;99.90
5556;DHT22;2801;50.972;7.856;2022-09-09T15:44:15;18.30;99.90
5556;DHT22;2801;50.972;7.856;2022-09-09T15:49:16;18.30;99.90
5556;DHT22;2801;50.972;7.856;2022-09-09T15:51:46;18.30;99.90
5556;DHT22;2801;50.972;7.856;2022-09-09T15:54:16;18.30;99.90
5556;DHT22;2801;50.972;7.856;2022-09-09T15:56:51;18.30;99.90
5556;DHT22;2801;50.972;7.856;2022-09-09T15:59:27;18.20;99.90
5556;DHT22;2801;50.972;7.856;2022-09-09T16:01:56;18.10;99.90
5556;DHT22;2801;50.972;7.856;2022-09-09T16:04:24;18.00;99.90
5556;DHT22;2801;50.972;7.856;2022-09-09T16:07:03;17.70;99.90
5556;DHT22;2801;50.972;7.856;2022-09-09T16:09:33;17.60;99.90
5556;DHT22;2801;50.972;7.856;2022-09-09T16:12:02;17.40;99.90
5556;DHT22;2801;50.972;7.856;2022-09-09T16:14:34;17.30;99.90
5556;DHT22;2801;50.972;7.856;2022-09-09T16:17:03;17.10;99.90
5556;DHT22;2801;50.972;7.856;2022-09-09T16:19:32;16.90;99.90
5556;DHT22;2801;50.972;7.856;2022-09-09T16:22:01;16.80;99.90
5556;DHT22;2801;50.972;7.856;2022-09-09T16:24:28;16.70;99.90
5556;DHT22;2801;50.972;7.856;2022-09-09T16:26:55;16.60;99.90
5556;DHT22;2801;50.972;7.856;2022-09-09T16:29:23;16.60;99.90
5556;DHT22;2801;50.972;7.856;2022-09-09T16:31:50;16.60;99.90
5556;DHT22;2801;50.972;7.856;2022-09-09T16:34:18;16.50;99.90
5556;DHT22;2801;50.972;7.856;2022-09-09T16:36:47;16.60;99.90
5556;DHT22;2801;50.972;7.856;2022-09-09T16:39:16;16.50;99.90
5556;DHT22;2801;50.972;7.856;2022-09-09T16:41:47;16.50;99.90
5556;DHT22;2801;50.972;7.856;2022-09-09T16:44:16;16.50;99.90
5556;DHT22;2801;50.972;7.856;2022-09-09T16:46:47;16.50;99.90
5556;DHT22;2801;50.972;7.856;2022-09-09T16:49:15;16.40;99.90
5556;DHT22;2801;50.972;7.856;2022-09-09T16:51:45;16.40;99.90
5556;DHT22;2801;50.972;7.856;2022-09-09T16:54:15;16.40;99.90
5556;DHT22;2801;50.972;7.856;2022-09-09T16:56:45;16.40;99.90
5556;DHT22;2801;50.972;7.856;2022-09-09T16:59:17;16.40;99.90
5556;DHT22;2801;50.972;7.856;2022-09-09T17:01:48;16.40;99.90
5556;DHT22;2801;50.972;7.856;2022-09-09T17:04:19;16.40;99.90
5556;DHT22;2801;50.972;7.856;2022-09-09T17:06:53;16.30;99.90
5556;DHT22;2801;50.972;7.856;2022-09-09T17:09:22;16.20;99.90
5556;DHT22;2801;50.972;7.856;2022-09-09T17:11:49;16.10;99.90
5556;DHT22;2801;50.972;7.856;2022-09-09T17:14:20;15.90;99.90
5556;DHT22;2801;50.972;7.856;2022-09-09T17:16:48;15.70;99.90
5556;DHT22;2801;50.972;7.856;2022-09-09T17:19:15;15.40;99.90
5556;DHT22;2801;50.972;7.856;2022-09-09T17:21:42;15.20;99.90
5556;DHT22;2801;50.972;7.856;2022-09-09T17:24:29;14.80;99.90
5556;DHT22;2801;50.972;7.856;2022-09-09T17:26:57;14.60;99.90
5556;DHT22;2801;50.972;7.856;2022-09-09T17:29:24;14.30;99.90
5556;DHT22;2801;50.972;7.856;2022-09-09T17:31:51;14.00;99.90
5556;DHT22;2801;50.972;7.856;2022-09-09T17:34:18;13.90;99.90
5556;DHT22;2801;50.972;7.856;2022-09-09T17:36:45;13.90;99.90
5556;DHT22;2801;50.972;7.856;2022-09-09T17:39:12;13.90;99.90
5556;DHT22;2801;50.972;7.856;2022-09-09T17:41:39;14.00;99.90
5556;DHT22;2801;50.972;7.856;2022-09-09T17:44:07;14.00;99.90
5556;DHT22;2801;50.972;7.856;2022-09-09T17:46:38;13.90;99.90
5556;DHT22;2801;50.972;7.856;2022-09-09T17:49:14;13.90;99.90
5556;DHT22;2801;50.972;7.856;2022-09-09T17:51:44;13.80;99.90
5556;DHT22;2801;50.972;7.856;2022-09-09T17:54:14;13.80;99.90
5556;DHT22;2801;50.972;7.856;2022-09-09T17:56:45;13.80;99.90
5556;DHT22;2801;50.972;7.856;2022-09-09T17:59:14;13.90;99.90
5556;DHT22;2801;50.972;7.856;2022-09-09T18:01:44;13.90;99.90
5556;DHT22;2801;50.972;7.856;2022-09-09T18:04:14;14.00;99.90
5556;DHT22;2801;50.972;7.856;2022-09-09T18:06:50;14.00;99.90
5556;DHT22;2801;50.972;7.856;2022-09-09T18:09:22;14.00;99.90
5556;DHT22;2801;50.972;7.856;2022-09-09T18:11:52;14.10;99.90
5556;DHT22;2801;50.972;7.856;2022-09-09T18:14:29;14.10;99.90
5556;DHT22;2801;50.972;7.856;2022-09-09T18:16:59;14.10;99.90
5556;DHT22;2801;50.972;7.856;2022-09-09T18:19:27;14.10;99.90
5556;DHT22;2801;50.972;7.856;2022-09-09T18:21:56;14.10;99.90
5556;DHT22;2801;50.972;7.856;2022-09-09T18:24:29;14.20;99.90
5556;DHT22;2801;50.972;7.856;2022-09-09T18:26:56;14.10;99.90
5556;DHT22;2801;50.972;7.856;2022-09-09T18:29:24;14.10;99.90
5556;DHT22;2801;50.972;7.856;2022-09-09T18:31:52;14.10;99.90
5556;DHT22;2801;50.972;7.856;2022-09-09T18:34:21;14.00;99.90